Time;durP1;ratioP1;P1;durP2;ratioP2;P2;SDS_P1;SDS_P2;PMS_P1;PMS_P2;Temp;Humidity;BMP_temperature;BMP_pressure;BME280_temperature;BME280_humidity;BME280_pressure;Samples;Min_cycle;Max_cycle;Signal;HPM_P1;HPM_P2
2022/11/13 00:05:59;;;;;;;10.85;5.43;;;;;;;;;;21005580;28;20123;-62
2022/11/13 00:16:02;;;;;;;8.38;4.65;;;;;;;;;;21004585;28;20087;-62
2022/11/13 00:26:08;;;;;;;4.82;3.47;;;;;;;;;;21003998;28;20057;-62
2022/11/13 00:36:13;;;;;;;8.98;4.13;;;;;;;;;;21002398;28;20049;-62
2022/11/13 00:46:16;;;;;;;10.57;4.22;;;;;;;;;;21000069;28;20485;-62
2022/11/13 00:56:18;;;;;;;11.13;3.80;;;;;;;;;;21000892;28;20054;-62
2022/11/13 01:06:22;;;;;;;6.88;3.70;;;;;;;;;;21001368;28;20072;-61
2022/11/13 01:16:24;;;;;;;9.38;3.88;;;;;;;;;;21000504;28;20615;-61
2022/11/13 01:26:28;;;;;;;9.90;3.17;;;;;;;;;;20998327;28;20056;-61
2022/11/13 01:36:30;;;;;;;7.15;3.47;;;;;;;;;;20997927;28;20118;-61
2022/11/13 01:46:59;;;;;;;5.35;2.85;;;;;;;;;;20996778;28;20056;-62
2022/11/13 01:57:02;;;;;;;8.50;3.17;;;;;;;;;;20995956;28;20106;-62
2022/11/13 02:07:06;;;;;;;7.72;2.30;;;;;;;;;;20997134;28;20049;-62
2022/11/13 02:17:12;;;;;;;8.20;2.58;;;;;;;;;;20995842;28;20048;-62
2022/11/13 02:27:21;;;;;;;6.57;2.95;;;;;;;;;;20994876;28;20052;-62
2022/11/13 02:37:24;;;;;;;6.32;3.17;;;;;;;;;;20995596;28;20162;-62
2022/11/13 02:47:31;;;;;;;5.72;3.13;;;;;;;;;;20994619;28;20057;-62
2022/11/13 02:57:34;;;;;;;5.85;2.65;;;;;;;;;;20994644;28;20068;-62
2022/11/13 03:07:46;;;;;;;9.23;3.42;;;;;;;;;;20993457;28;20159;-62
2022/11/13 03:17:54;;;;;;;6.40;3.00;;;;;;;;;;20993608;28;20076;-62
2022/11/13 03:28:00;;;;;;;5.72;2.75;;;;;;;;;;21002975;28;20057;-62
2022/11/13 03:38:04;;;;;;;9.60;2.83;;;;;;;;;;21007540;28;20094;-62
2022/11/13 03:48:08;;;;;;;8.30;2.47;;;;;;;;;;21005673;28;20110;-62
2022/11/13 03:58:10;;;;;;;5.25;2.47;;;;;;;;;;21005398;28;20048;-62
2022/11/13 04:08:12;;;;;;;8.23;2.92;;;;;;;;;;21005093;28;20401;-62
2022/11/13 04:18:15;;;;;;;5.22;2.20;;;;;;;;;;21003577;28;20049;-62
2022/11/13 04:28:19;;;;;;;4.88;2.30;;;;;;;;;;21003146;28;20408;-62
2022/11/13 04:38:22;;;;;;;6.45;2.60;;;;;;;;;;21001897;28;20051;-61
2022/11/13 04:48:29;;;;;;;5.90;2.42;;;;;;;;;;21001642;28;20067;-61
2022/11/13 04:58:31;;;;;;;4.55;2.08;;;;;;;;;;21000127;28;20048;-62
2022/11/13 05:08:35;;;;;;;8.50;2.30;;;;;;;;;;20999496;28;20139;-62
2022/11/13 05:18:37;;;;;;;7.63;3.15;;;;;;;;;;20999409;28;20056;-62
2022/11/13 05:28:40;;;;;;;6.47;2.97;;;;;;;;;;20998598;28;20112;-62
2022/11/13 05:38:42;;;;;;;6.63;2.60;;;;;;;;;;20998030;28;20080;-63
2022/11/13 05:48:45;;;;;;;7.47;2.60;;;;;;;;;;20995741;28;20072;-61
2022/11/13 05:58:48;;;;;;;6.53;2.95;;;;;;;;;;20996513;28;20394;-61
2022/11/13 06:08:51;;;;;;;9.45;2.65;;;;;;;;;;20995792;28;20058;-62
2022/11/13 06:18:56;;;;;;;9.57;2.80;;;;;;;;;;20996320;28;20048;-63
2022/11/13 06:28:58;;;;;;;12.32;2.55;;;;;;;;;;20995661;28;20061;-61
2022/11/13 06:39:01;;;;;;;6.40;2.78;;;;;;;;;;20995146;28;20044;-60
2022/11/13 06:49:03;;;;;;;8.35;2.55;;;;;;;;;;20994976;28;20087;-62
2022/11/13 06:59:05;;;;;;;7.95;2.35;;;;;;;;;;21000628;28;20056;-62
2022/11/13 07:09:07;;;;;;;8.45;2.70;;;;;;;;;;21009419;28;20086;-62
2022/11/13 07:19:10;;;;;;;7.35;2.63;;;;;;;;;;21009235;28;20102;-62
2022/11/13 07:29:12;;;;;;;7.57;3.72;;;;;;;;;;21007903;28;20055;-62
2022/11/13 07:39:14;;;;;;;8.57;2.53;;;;;;;;;;21007148;28;20405;-62
2022/11/13 07:49:16;;;;;;;10.38;2.80;;;;;;;;;;21005705;28;20114;-62
2022/11/13 07:59:18;;;;;;;7.22;2.78;;;;;;;;;;21005130;28;20055;-63
2022/11/13 08:09:20;;;;;;;8.70;2.58;;;;;;;;;;21004470;28;20404;-61
2022/11/13 08:19:22;;;;;;;5.32;2.58;;;;;;;;;;21004785;28;20385;-61
2022/11/13 08:29:23;;;;;;;6.65;2.70;;;;;;;;;;21002963;28;20138;-60
2022/11/13 08:39:25;;;;;;;9.02;3.15;;;;;;;;;;21003530;28;20068;-61
2022/11/13 08:49:28;;;;;;;8.18;2.92;;;;;;;;;;21001491;28;20063;-61
2022/11/13 08:59:30;;;;;;;8.18;2.80;;;;;;;;;;21000707;28;20048;-62
2022/11/13 09:09:33;;;;;;;6.88;2.30;;;;;;;;;;20999763;28;20080;-61
2022/11/13 09:19:35;;;;;;;5.13;2.63;;;;;;;;;;20998374;28;20044;-67
2022/11/13 09:29:37;;;;;;;7.85;3.20;;;;;;;;;;20997867;28;20059;-63
2022/11/13 09:39:39;;;;;;;12.63;3.20;;;;;;;;;;20999070;28;20041;-64
2022/11/13 09:49:44;;;;;;;9.98;3.45;;;;;;;;;;20996423;28;20060;-61
2022/11/13 09:59:52;;;;;;;7.50;2.63;;;;;;;;;;20995564;28;20102;-62
2022/11/13 10:09:54;;;;;;;6.95;2.97;;;;;;;;;;20996446;28;20050;-61
2022/11/13 10:19:58;;;;;;;7.82;2.53;;;;;;;;;;20993909;28;20045;-63
2022/11/13 10:30:00;;;;;;;8.77;2.83;;;;;;;;;;20995168;28;20052;-61
2022/11/13 10:40:02;;;;;;;8.73;2.83;;;;;;;;;;21010378;28;20050;-63
2022/11/13 10:50:10;;;;;;;5.50;2.30;;;;;;;;;;21010835;28;20477;-63
2022/11/13 11:00:40;;;;;;;10.45;2.83;;;;;;;;;;21011345;28;20044;-61
2022/11/13 11:12:14;;;;;;;9.25;3.08;;;;;;;;;;21008886;28;20075;-62
2022/11/13 11:21:14;;;;;;;6.47;2.42;;;;;;;;;;21008475;28;20067;-62
2022/11/13 11:31:21;;;;;;;7.93;2.95;;;;;;;;;;21007483;28;20056;-63
2022/11/13 11:41:26;;;;;;;8.70;3.33;;;;;;;;;;21007247;28;20049;-63
2022/11/13 11:51:34;;;;;;;8.02;3.08;;;;;;;;;;21004475;28;20063;-62
2022/11/13 12:01:45;;;;;;;9.83;3.27;;;;;;;;;;21006352;28;20059;-63
2022/11/13 12:12:04;;;;;;;8.20;3.05;;;;;;;;;;21004831;28;20053;-63
2022/11/13 12:22:21;;;;;;;10.80;3.57;;;;;;;;;;21004610;28;20456;-62
2022/11/13 12:32:25;;;;;;;7.05;3.10;;;;;;;;;;21004562;28;20112;-62
2022/11/13 12:42:27;;;;;;;12.18;3.35;;;;;;;;;;21002987;28;20044;-62
2022/11/13 12:52:30;;;;;;;9.98;4.35;;;;;;;;;;21000590;28;20048;-61
2022/11/13 13:02:39;;;;;;;10.02;3.38;;;;;;;;;;20999926;28;20556;-62
2022/11/13 13:12:46;;;;;;;8.40;3.80;;;;;;;;;;20999794;28;20515;-61
2022/11/13 13:22:58;;;;;;;11.27;4.07;;;;;;;;;;20998742;28;20243;-66
2022/11/13 13:33:13;;;;;;;11.55;3.50;;;;;;;;;;20998146;28;20044;-67
2022/11/13 13:43:15;;;;;;;15.88;4.00;;;;;;;;;;20997091;28;20071;-67
2022/11/13 13:53:26;;;;;;;10.10;4.70;;;;;;;;;;20996623;28;20186;-66
2022/11/13 14:03:28;;;;;;;12.88;4.20;;;;;;;;;;20996271;28;20049;-66
2022/11/13 14:13:31;;;;;;;10.23;4.03;;;;;;;;;;20996266;28;20063;-67
2022/11/13 14:23:40;;;;;;;8.27;3.67;;;;;;;;;;20996241;28;20057;-67
2022/11/13 14:33:43;;;;;;;;;;;;;;;;;;20995818;28;20496;-66
2022/11/13 14:43:49;;;;;;;9.20;3.40;;;;;;;;;;20994810;28;19935;-67
2022/11/13 14:54:02;;;;;;;10.95;3.92;;;;;;;;;;20994073;28;20060;-69
2022/11/13 15:04:05;;;;;;;12.48;4.10;;;;;;;;;;20994770;28;20382;-67
2022/11/13 15:14:14;;;;;;;13.85;4.78;;;;;;;;;;20994425;28;20412;-67
2022/11/13 15:24:17;;;;;;;5.75;2.15;;;;;;;;;;21003791;28;20044;-67
2022/11/13 15:34:19;;;;;;;17.25;5.93;;;;;;;;;;21007621;28;20064;-67
2022/11/13 15:44:21;;;;;;;11.13;4.00;;;;;;;;;;21007419;28;20137;-68
2022/11/13 15:54:29;;;;;;;13.32;4.53;;;;;;;;;;21005710;28;20080;-67
2022/11/13 16:04:32;;;;;;;13.13;3.80;;;;;;;;;;21005675;28;20484;-67
2022/11/13 16:14:34;;;;;;;10.13;4.30;;;;;;;;;;21005004;28;20409;-68
2022/11/13 16:24:36;;;;;;;12.15;4.68;;;;;;;;;;21004671;28;20048;-67
2022/11/13 16:34:38;;;;;;;19.05;7.93;;;;;;;;;;21002374;28;20051;-67
2022/11/13 16:44:42;;;;;;;14.95;5.53;;;;;;;;;;21002520;28;20424;-67
2022/11/13 16:54:44;;;;;;;15.40;7.30;;;;;;;;;;21001248;28;20045;-66
2022/11/13 17:04:47;;;;;;;14.65;7.05;;;;;;;;;;21000425;28;20048;-68
2022/11/13 17:14:49;;;;;;;19.75;8.32;;;;;;;;;;20999180;28;20049;-66
2022/11/13 17:24:52;;;;;;;20.30;10.27;;;;;;;;;;20999013;28;20485;-68
2022/11/13 17:34:54;;;;;;;22.83;9.20;;;;;;;;;;20998625;28;20139;-68
2022/11/13 17:44:56;;;;;;;20.35;10.38;;;;;;;;;;20996087;28;20052;-65
2022/11/13 17:54:58;;;;;;;92.78;51.28;;;;;;;;;;20996815;28;20052;-67
2022/11/13 18:05:02;;;;;;;47.45;24.80;;;;;;;;;;20995621;28;20051;-66
2022/11/13 18:15:05;;;;;;;25.88;15.20;;;;;;;;;;20995354;28;20068;-66
2022/11/13 18:25:08;;;;;;;31.85;15.50;;;;;;;;;;20995156;28;20223;-69
2022/11/13 18:35:10;;;;;;;48.90;24.77;;;;;;;;;;20995297;28;20511;-66
2022/11/13 18:45:15;;;;;;;24.42;9.27;;;;;;;;;;20994210;28;20057;-68
2022/11/13 18:55:17;;;;;;;18.48;9.02;;;;;;;;;;21000057;28;20500;-67
2022/11/13 19:05:19;;;;;;;36.55;17.85;;;;;;;;;;21009722;28;20052;-66
2022/11/13 19:15:22;;;;;;;43.40;20.25;;;;;;;;;;21008894;28;20057;-66
2022/11/13 19:25:24;;;;;;;38.10;19.58;;;;;;;;;;21008131;28;20045;-67
2022/11/13 19:35:27;;;;;;;27.25;13.43;;;;;;;;;;21007228;28;20048;-67
2022/11/13 19:45:30;;;;;;;25.25;11.45;;;;;;;;;;21006258;28;20409;-68
2022/11/13 19:55:33;;;;;;;30.25;13.95;;;;;;;;;;21004724;28;20056;-66
2022/11/13 20:05:39;;;;;;;18.20;8.02;;;;;;;;;;21003708;28;20053;-68
2022/11/13 20:15:41;;;;;;;14.32;7.13;;;;;;;;;;21004726;28;20076;-67
2022/11/13 20:25:50;;;;;;;22.70;9.73;;;;;;;;;;21004800;28;20481;-66
2022/11/13 20:35:52;;;;;;;;;;;;;;;;;;21004356;28;20052;-66
2022/11/13 20:46:05;;;;;;;16.88;8.07;;;;;;;;;;21001865;28;20019;-67
2022/11/13 20:56:07;;;;;;;11.25;6.95;;;;;;;;;;21000865;28;20053;-68
2022/11/13 21:06:11;;;;;;;12.80;6.57;;;;;;;;;;21000683;28;20053;-68
2022/11/13 21:16:12;;;;;;;14.02;6.20;;;;;;;;;;20998403;28;20500;-67
2022/11/13 21:26:15;;;;;;;17.50;6.97;;;;;;;;;;20999005;28;20060;-67
2022/11/13 21:36:21;;;;;;;22.65;11.65;;;;;;;;;;20997683;28;20052;-67
2022/11/13 21:46:25;;;;;;;23.30;9.30;;;;;;;;;;20997984;28;20052;-67
2022/11/13 21:56:27;;;;;;;17.58;8.55;;;;;;;;;;20997127;28;20048;-68
2022/11/13 22:06:30;;;;;;;24.25;10.82;;;;;;;;;;20995780;28;20055;-67
2022/11/13 22:16:33;;;;;;;18.17;7.53;;;;;;;;;;20995928;28;20451;-69
2022/11/13 22:26:39;;;;;;;10.88;6.50;;;;;;;;;;20995478;28;20071;-67
2022/11/13 22:36:41;;;;;;;15.20;7.05;;;;;;;;;;21013318;28;20091;-65
2022/11/13 22:46:43;;;;;;;12.80;6.40;;;;;;;;;;21012200;28;20044;-67
2022/11/13 22:56:44;;;;;;;11.85;6.65;;;;;;;;;;21010823;28;20067;-67
2022/11/13 23:06:46;;;;;;;16.10;6.88;;;;;;;;;;21010825;28;20128;-66
2022/11/13 23:16:48;;;;;;;12.63;7.10;;;;;;;;;;21008845;28;20105;-66
2022/11/13 23:26:50;;;;;;;13.88;6.10;;;;;;;;;;21008808;28;20139;-67
2022/11/13 23:36:52;;;;;;;13.20;6.13;;;;;;;;;;21008441;28;20083;-67
2022/11/13 23:46:54;;;;;;;9.55;5.40;;;;;;;;;;21007551;28;20102;-66
2022/11/13 23:56:56;;;;;;;13.35;6.60;;;;;;;;;;21006263;28;20133;-66
